Rechercher aéroport 
image banner adimage banner adimage banner ad
image banner ad

CA023 - Beaulieu River

Situé à , Canada

ICAO - , IATA -

Données fournies par Airmate  

Information générale

Coordonnées: N62°27'0" W113°1'60"
Élévation : feet MSL.
 
Voir autres Aéroports à Northwest Territories

Données opérationnelles

Special qualification required
Heure actuelle UTC:
Heure actuelle locale:
Météo à : CYZF - Yellowknife ( 72 km )
METAR: CYZF 070000Z 06007KT 15SM FEW010 SCT065 M28/M31 A2987 RMK SC2SC1 SLP152
TAF: TAF CYZF 062340Z 0700/0724 06005KT P6SM FEW060 BECMG 0703/0705 09008KT BECMG 0715/0717 11015G25KT FM072100 11017G27KT P6SM BKN140 RMK NXT FCST BY 070600Z
Voir NOTAMs / SUP AIP / TFR affectant cet aéroport [VIEW]
Fréquences de communication: [VIEW]

Pistes:

Coordonnées de l'aéroport

Adresse: Canada

Vue satellite de CA023